createdAt,value
2023-04-27T00:01:54.364Z,8.38
2023-04-27T00:04:22.377Z,8.36
2023-04-27T00:06:50.528Z,8.48
2023-04-27T00:09:18.232Z,8.45
2023-04-27T00:11:47.185Z,8.41
2023-04-27T00:14:14.847Z,8.47
2023-04-27T00:16:45.928Z,8.53
2023-04-27T00:19:15.375Z,8.54
2023-04-27T00:21:43.503Z,8.55
2023-04-27T00:24:11.235Z,8.52
2023-04-27T00:26:38.868Z,8.28
2023-04-27T00:29:07.777Z,8.32
2023-04-27T00:31:35.632Z,8.35
2023-04-27T00:34:03.287Z,8.28
2023-04-27T00:36:31.267Z,8.30
2023-04-27T00:38:58.869Z,8.33
2023-04-27T00:41:26.446Z,8.34
2023-04-27T00:43:54.074Z,8.37
2023-04-27T00:46:23.034Z,8.31
2023-04-27T00:48:51.383Z,8.34
2023-04-27T00:51:19.260Z,8.36
2023-04-27T00:53:47.134Z,8.36
2023-04-27T00:56:14.804Z,8.34
2023-04-27T00:58:42.425Z,8.33
2023-04-27T01:01:10.909Z,8.33
2023-04-27T01:03:40.035Z,8.34
2023-04-27T01:06:08.340Z,8.27
2023-04-27T01:08:36.017Z,8.22
2023-04-27T01:11:04.090Z,8.18
2023-04-27T01:13:31.731Z,8.13
2023-04-27T01:15:59.457Z,8.14
2023-04-27T01:18:28.612Z,8.11
2023-04-27T01:20:57.592Z,8.04
2023-04-27T01:23:26.576Z,8.06
2023-04-27T01:25:54.503Z,8.06
2023-04-27T01:28:22.161Z,8.09
2023-04-27T01:30:49.916Z,7.99
2023-04-27T01:33:17.762Z,8.03
2023-04-27T01:35:45.739Z,8.04
2023-04-27T01:38:13.741Z,8.04
2023-04-27T01:40:42.903Z,7.95
2023-04-27T01:43:10.688Z,7.93
2023-04-27T01:45:38.440Z,7.86
2023-04-27T01:48:06.594Z,7.80
2023-04-27T01:50:34.380Z,7.82
2023-04-27T01:53:02.214Z,7.94
2023-04-27T01:55:29.949Z,7.84
2023-04-27T01:57:58.796Z,7.83
2023-04-27T02:00:26.409Z,7.90
2023-04-27T02:02:57.325Z,7.89
2023-04-27T02:05:25.370Z,7.88
2023-04-27T02:07:53.063Z,7.82
2023-04-27T02:10:22.132Z,7.79
2023-04-27T02:12:49.885Z,7.73
2023-04-27T02:15:18.970Z,7.77
2023-04-27T02:17:46.969Z,7.80
2023-04-27T02:20:14.719Z,7.81
2023-04-27T02:22:44.406Z,7.75
2023-04-27T02:25:12.404Z,7.67
2023-04-27T02:27:40.854Z,7.58
2023-04-27T02:30:11.527Z,7.55
2023-04-27T02:32:41.166Z,7.59
2023-04-27T02:35:09.807Z,7.59
2023-04-27T02:37:37.652Z,7.59
2023-04-27T02:40:07.346Z,7.61
2023-04-27T02:42:34.964Z,7.61
2023-04-27T02:45:02.871Z,7.58
2023-04-27T02:47:30.489Z,7.52
2023-04-27T02:49:59.485Z,7.55
2023-04-27T02:52:27.605Z,7.52
2023-04-27T02:54:55.319Z,7.43
2023-04-27T02:57:22.896Z,7.31
2023-04-27T02:59:51.157Z,7.12
2023-04-27T03:02:18.913Z,7.07
2023-04-27T03:04:46.739Z,7.11
2023-04-27T03:07:15.695Z,7.15
2023-04-27T03:09:43.376Z,7.11
2023-04-27T03:12:11.005Z,7.14
2023-04-27T03:14:38.623Z,7.09
2023-04-27T03:17:06.339Z,7.03
2023-04-27T03:19:34.007Z,7.09
2023-04-27T03:22:02.031Z,7.11
2023-04-27T03:24:31.100Z,7.11
2023-04-27T03:26:58.687Z,7.12
2023-04-27T03:29:26.220Z,7.10
2023-04-27T03:31:53.877Z,6.99
2023-04-27T03:34:21.770Z,6.79
2023-04-27T03:36:49.498Z,6.78
2023-04-27T03:39:17.332Z,6.56
2023-04-27T03:41:46.338Z,6.58
2023-04-27T03:44:13.925Z,6.69
2023-04-27T03:46:41.593Z,6.76
2023-04-27T03:49:09.201Z,6.74
2023-04-27T03:51:38.100Z,6.66
2023-04-27T03:54:05.970Z,6.71
2023-04-27T03:56:33.592Z,6.59
2023-04-27T03:59:02.506Z,6.55
2023-04-27T04:01:30.744Z,6.56
2023-04-27T04:03:58.514Z,6.39
2023-04-27T04:06:27.941Z,6.42
2023-04-27T04:08:55.853Z,6.49
2023-04-27T04:11:23.487Z,6.54
2023-04-27T04:13:51.100Z,6.60
2023-04-27T04:16:20.144Z,6.65
2023-04-27T04:18:47.939Z,6.62
2023-04-27T04:21:15.672Z,6.73
2023-04-27T04:23:43.273Z,6.82
2023-04-27T04:26:11.341Z,6.84
2023-04-27T04:28:39.130Z,6.87
2023-04-27T04:31:09.484Z,6.88
2023-04-27T04:33:38.419Z,6.93
2023-04-27T04:36:06.748Z,7.01
2023-04-27T04:38:34.465Z,7.03
2023-04-27T04:41:02.338Z,6.95
2023-04-27T04:43:30.033Z,6.85
2023-04-27T04:45:57.632Z,6.86
2023-04-27T04:48:25.606Z,6.89
2023-04-27T04:50:54.545Z,6.88
2023-04-27T04:53:22.157Z,6.85
2023-04-27T04:55:49.739Z,6.78
2023-04-27T04:58:17.296Z,6.66
2023-04-27T05:00:44.855Z,6.58
2023-04-27T05:03:12.585Z,6.69
2023-04-27T05:05:40.845Z,6.80
2023-04-27T05:08:09.766Z,6.71
2023-04-27T05:10:37.491Z,6.59
2023-04-27T05:13:07.059Z,6.65
2023-04-27T05:15:34.927Z,6.71
2023-04-27T05:18:02.600Z,6.75
2023-04-27T05:20:30.303Z,6.77
2023-04-27T05:22:58.004Z,6.76
2023-04-27T05:25:27.102Z,6.69
2023-04-27T05:27:55.996Z,6.53
2023-04-27T05:30:24.036Z,6.48
2023-04-27T05:32:51.684Z,6.55
2023-04-27T05:35:19.491Z,6.53
2023-04-27T05:37:47.135Z,6.55
2023-04-27T05:40:16.382Z,6.59
2023-04-27T05:42:47.133Z,6.64
2023-04-27T05:45:15.231Z,6.68
2023-04-27T05:47:43.273Z,6.79
2023-04-27T05:50:11.637Z,6.81
2023-04-27T05:52:39.422Z,6.86
2023-04-27T05:55:08.555Z,6.88
2023-04-27T05:57:36.183Z,6.82
2023-04-27T06:00:10.580Z,6.92
2023-04-27T06:02:38.397Z,7.15
2023-04-27T06:05:07.005Z,7.23
2023-04-27T06:07:34.749Z,7.06
2023-04-27T06:10:02.826Z,7.37
2023-04-27T06:12:30.514Z,7.59
2023-04-27T06:14:58.148Z,7.57
2023-04-27T06:17:27.037Z,7.56
2023-04-27T06:19:54.680Z,7.63
2023-04-27T06:22:22.395Z,7.74
2023-04-27T06:24:49.998Z,7.79
2023-04-27T06:27:17.603Z,7.70
2023-04-27T06:29:45.168Z,7.69
2023-04-27T06:32:12.723Z,7.60
2023-04-27T06:34:41.758Z,7.81
2023-04-27T06:37:09.364Z,7.88
2023-04-27T06:39:37.429Z,7.94
2023-04-27T06:42:05.327Z,8.05
2023-04-27T06:44:33.081Z,8.00
2023-04-27T06:47:01.104Z,8.13
2023-04-27T06:49:29.026Z,8.24
2023-04-27T06:51:58.248Z,8.28
2023-04-27T06:54:26.525Z,8.26
2023-04-27T06:56:54.614Z,8.23
2023-04-27T06:59:22.450Z,8.25
2023-04-27T07:01:50.163Z,8.20
2023-04-27T07:04:17.946Z,8.31
2023-04-27T07:06:45.621Z,8.43
2023-04-27T07:09:26.574Z,8.38
2023-04-27T07:11:55.403Z,8.48
2023-04-27T07:14:23.551Z,8.54
2023-04-27T07:16:51.242Z,8.64
2023-04-27T07:19:18.909Z,8.41
2023-04-27T07:21:46.510Z,8.38
2023-04-27T07:24:15.469Z,8.45
2023-04-27T07:26:43.385Z,8.63
2023-04-27T07:29:25.602Z,8.82
2023-04-27T07:31:55.520Z,8.94
2023-04-27T07:34:23.667Z,9.02
2023-04-27T07:36:53.983Z,9.09
2023-04-27T07:39:23.836Z,9.11
2023-04-27T07:41:51.698Z,9.07
2023-04-27T07:44:20.046Z,9.16
2023-04-27T07:46:48.816Z,9.28
2023-04-27T07:49:16.675Z,9.22
2023-04-27T07:51:44.248Z,9.35
2023-04-27T07:54:11.887Z,9.42
2023-04-27T07:56:43.104Z,9.37
2023-04-27T07:59:10.937Z,9.56
2023-04-27T08:01:38.900Z,9.71
2023-04-27T08:04:06.795Z,9.72
2023-04-27T08:06:35.658Z,9.48
2023-04-27T08:09:04.295Z,9.16
2023-04-27T08:11:32.660Z,8.97
2023-04-27T08:14:01.643Z,8.72
2023-04-27T08:16:31.212Z,8.95
2023-04-27T08:19:00.609Z,9.25
2023-04-27T08:21:30.342Z,9.49
2023-04-27T08:23:57.945Z,9.64
2023-04-27T08:26:26.405Z,9.80
2023-04-27T08:28:54.333Z,9.83
2023-04-27T08:31:23.362Z,9.98
2023-04-27T08:33:51.162Z,9.84
2023-04-27T08:36:19.009Z,9.91
2023-04-27T08:38:47.108Z,9.87
2023-04-27T08:41:21.893Z,9.66
2023-04-27T08:43:50.845Z,9.49
2023-04-27T08:46:25.026Z,9.43
2023-04-27T08:48:53.633Z,9.39
2023-04-27T08:51:22.405Z,9.54
2023-04-27T08:53:51.962Z,9.72
2023-04-27T08:56:20.037Z,9.89
2023-04-27T08:58:47.668Z,10.03
2023-04-27T09:01:15.984Z,10.18
2023-04-27T09:03:47.549Z,10.30
2023-04-27T09:06:16.455Z,10.44
2023-04-27T09:08:46.326Z,10.42
2023-04-27T09:11:16.758Z,10.39
2023-04-27T09:13:45.853Z,10.43
2023-04-27T09:16:15.259Z,10.35
2023-04-27T09:18:45.305Z,10.43
2023-04-27T09:21:23.603Z,10.15
2023-04-27T09:23:51.464Z,10.00
2023-04-27T09:26:23.327Z,9.96
2023-04-27T09:28:52.500Z,9.79
2023-04-27T09:31:20.730Z,9.67
2023-04-27T09:33:56.283Z,9.61
2023-04-27T09:36:24.267Z,9.55
2023-04-27T09:38:52.906Z,9.57
2023-04-27T09:41:21.603Z,9.79
2023-04-27T09:43:49.607Z,9.93
2023-04-27T09:46:17.280Z,10.22
2023-04-27T09:48:44.876Z,10.44
2023-04-27T09:51:16.261Z,10.59
2023-04-27T09:53:49.683Z,10.56
2023-04-27T09:56:28.711Z,10.41
2023-04-27T09:59:13.516Z,10.46
2023-04-27T10:01:49.000Z,10.57
2023-04-27T10:04:38.878Z,10.44
2023-04-27T10:07:09.418Z,10.55
2023-04-27T10:09:38.798Z,10.61
2023-04-27T10:12:18.081Z,10.70
2023-04-27T10:14:53.225Z,10.62
2023-04-27T10:17:26.028Z,10.58
2023-04-27T10:19:57.999Z,10.50
2023-04-27T10:22:39.195Z,10.70
2023-04-27T10:25:16.408Z,10.58
2023-04-27T10:27:44.070Z,10.69
2023-04-27T10:30:13.441Z,10.70
2023-04-27T10:32:52.745Z,10.69
2023-04-27T10:35:22.353Z,10.91
2023-04-27T10:37:52.995Z,11.11
2023-04-27T10:40:20.756Z,11.09
2023-04-27T10:42:49.447Z,11.22
2023-04-27T10:45:30.948Z,10.96
2023-04-27T10:48:02.026Z,11.00
2023-04-27T10:50:31.385Z,11.08
2023-04-27T10:53:03.553Z,11.06
2023-04-27T10:55:32.018Z,10.96
2023-04-27T10:58:00.155Z,10.92
2023-04-27T11:00:29.824Z,10.86
2023-04-27T11:03:12.874Z,10.78
2023-04-27T11:05:41.310Z,10.81
2023-04-27T11:08:12.802Z,10.91
2023-04-27T11:10:41.530Z,11.04
2023-04-27T11:13:11.150Z,11.13
2023-04-27T11:15:46.618Z,11.20
2023-04-27T11:18:15.441Z,11.31
2023-04-27T11:20:44.110Z,11.47
2023-04-27T11:23:24.158Z,11.65
2023-04-27T11:25:52.676Z,11.79
2023-04-27T11:28:20.591Z,11.77
2023-04-27T11:30:49.307Z,11.73
2023-04-27T11:33:17.022Z,11.60
2023-04-27T11:35:44.608Z,11.57
2023-04-27T11:38:18.573Z,11.55
2023-04-27T11:40:47.407Z,11.47
2023-04-27T11:43:15.434Z,11.57
2023-04-27T11:45:43.947Z,11.63
2023-04-27T11:48:14.698Z,11.75
2023-04-27T11:50:42.623Z,11.88
2023-04-27T11:53:10.268Z,11.91
2023-04-27T11:55:41.145Z,12.09
2023-04-27T11:58:14.823Z,12.13
2023-04-27T12:00:42.733Z,12.02
2023-04-27T12:03:10.495Z,11.84
2023-04-27T12:05:48.959Z,11.78
2023-04-27T12:08:17.012Z,11.64
2023-04-27T12:10:48.840Z,11.55
2023-04-27T12:13:16.654Z,11.55
2023-04-27T12:15:44.413Z,11.50
2023-04-27T12:18:12.088Z,11.53
2023-04-27T12:20:39.845Z,11.71
2023-04-27T12:23:07.434Z,11.73
2023-04-27T12:25:36.316Z,11.68
2023-04-27T12:28:06.035Z,11.87
2023-04-27T12:30:33.635Z,12.14
2023-04-27T12:33:02.338Z,12.36
2023-04-27T12:35:31.915Z,12.60
2023-04-27T12:37:59.757Z,12.93
2023-04-27T12:40:27.388Z,13.24
2023-04-27T12:42:54.967Z,13.40
2023-04-27T12:45:24.055Z,13.59
2023-04-27T12:48:02.845Z,13.66
2023-04-27T12:50:31.939Z,13.65
2023-04-27T12:53:00.038Z,13.73
2023-04-27T12:57:59.008Z,14.20
2023-04-27T13:00:29.350Z,14.29
2023-04-27T13:02:58.196Z,14.53
2023-04-27T13:05:26.414Z,14.51
2023-04-27T13:07:54.245Z,14.28
2023-04-27T13:10:21.976Z,14.46
2023-04-27T13:12:49.677Z,14.68
2023-04-27T13:15:18.262Z,14.84
2023-04-27T13:17:47.282Z,15.06
2023-04-27T13:20:15.495Z,14.53
2023-04-27T13:22:43.491Z,14.16
2023-04-27T13:25:11.194Z,13.89
2023-04-27T13:27:38.873Z,13.94
2023-04-27T13:30:08.292Z,14.08
2023-04-27T13:32:36.454Z,14.24
2023-04-27T13:35:06.084Z,14.13
2023-04-27T13:37:35.236Z,13.86
2023-04-27T13:40:04.470Z,13.90
2023-04-27T13:42:32.094Z,14.19
2023-04-27T13:45:00.813Z,14.27
2023-04-27T13:47:30.041Z,14.59
2023-04-27T13:49:57.756Z,14.78
2023-04-27T13:52:26.683Z,15.08
2023-04-27T13:54:54.382Z,15.38
2023-04-27T13:57:22.023Z,15.46
2023-04-27T13:59:49.761Z,15.24
2023-04-27T14:02:17.427Z,15.40
2023-04-27T14:04:45.136Z,15.39
2023-04-27T14:07:13.022Z,15.56
2023-04-27T14:09:42.063Z,15.75
2023-04-27T14:12:12.282Z,15.44
2023-04-27T14:14:40.436Z,15.46
2023-04-27T14:17:08.303Z,15.62
2023-04-27T14:19:36.274Z,15.77
2023-04-27T14:22:04.604Z,15.41
2023-04-27T14:24:32.214Z,15.58
2023-04-27T14:27:01.248Z,15.81
2023-04-27T14:29:28.954Z,15.95
2023-04-27T14:31:57.658Z,15.98
2023-04-27T14:34:25.479Z,16.02
2023-04-27T14:36:53.156Z,16.13
2023-04-27T14:39:21.435Z,16.25
2023-04-27T14:41:49.224Z,16.27
2023-04-27T14:44:18.409Z,16.41
2023-04-27T14:46:46.257Z,16.49
2023-04-27T14:49:14.262Z,16.41
2023-04-27T14:51:43.514Z,16.34
2023-04-27T14:54:11.736Z,16.30
2023-04-27T14:56:39.736Z,16.09
2023-04-27T14:59:07.598Z,16.07
2023-04-27T15:01:37.167Z,15.96
2023-04-27T15:04:05.314Z,15.70
2023-04-27T15:06:33.213Z,15.43
2023-04-27T15:09:00.885Z,15.25
2023-04-27T15:11:28.458Z,15.31
2023-04-27T15:13:56.027Z,15.07
2023-04-27T15:16:23.749Z,14.98
2023-04-27T15:18:53.112Z,14.87
2023-04-27T15:21:20.647Z,14.79
2023-04-27T15:23:48.415Z,14.72
2023-04-27T15:26:16.737Z,14.68
2023-04-27T15:28:44.380Z,14.72
2023-04-27T15:31:12.043Z,14.65
2023-04-27T15:33:39.651Z,14.47
2023-04-27T15:36:09.048Z,14.37
2023-04-27T15:38:36.789Z,14.18
2023-04-27T15:41:04.541Z,14.10
2023-04-27T15:43:32.247Z,13.85
2023-04-27T15:45:59.988Z,13.86
2023-04-27T15:48:27.613Z,13.94
2023-04-27T15:50:55.349Z,13.77
2023-04-27T15:53:24.797Z,13.77
2023-04-27T15:55:53.943Z,13.68
2023-04-27T15:58:21.924Z,13.66
2023-04-27T16:00:49.611Z,13.64
2023-04-27T16:03:17.426Z,13.62
2023-04-27T16:05:45.399Z,13.60
2023-04-27T16:08:12.959Z,13.59
2023-04-27T16:10:41.883Z,13.52
2023-04-27T16:13:09.490Z,13.42
2023-04-27T16:15:37.098Z,13.44
2023-04-27T16:18:04.751Z,13.54
2023-04-27T16:20:34.203Z,13.48
2023-04-27T16:23:03.870Z,13.45
2023-04-27T16:25:31.557Z,13.44
2023-04-27T16:28:00.763Z,13.45
2023-04-27T16:30:28.378Z,13.49
2023-04-27T16:32:56.508Z,13.49
2023-04-27T16:35:24.135Z,13.33
2023-04-27T16:37:53.737Z,13.45
2023-04-27T16:40:21.601Z,13.54
2023-04-27T16:42:49.515Z,13.47
2023-04-27T16:45:19.030Z,13.48
2023-04-27T16:47:47.539Z,13.57
2023-04-27T16:50:15.295Z,13.53
2023-04-27T16:52:43.619Z,13.50
2023-04-27T16:55:11.307Z,13.55
2023-04-27T16:57:38.933Z,13.58
2023-04-27T17:00:09.577Z,13.44
2023-04-27T17:02:40.002Z,13.43
2023-04-27T17:05:10.290Z,13.37
2023-04-27T17:07:38.189Z,13.39
2023-04-27T17:10:08.980Z,13.41
2023-04-27T17:12:37.116Z,13.27
2023-04-27T17:15:06.013Z,13.20
2023-04-27T17:17:34.668Z,13.17
2023-04-27T17:20:05.664Z,13.08
2023-04-27T17:22:33.890Z,13.07
2023-04-27T17:25:01.947Z,13.08
2023-04-27T17:27:29.795Z,13.14
2023-04-27T17:29:57.994Z,13.17
2023-04-27T17:32:26.211Z,13.12
2023-04-27T17:34:53.867Z,13.02
2023-04-27T17:37:22.816Z,13.05
2023-04-27T17:39:51.639Z,13.03
2023-04-27T17:42:19.630Z,13.03
2023-04-27T17:44:47.472Z,13.00
2023-04-27T17:47:15.165Z,12.99
2023-04-27T17:49:42.736Z,12.96
2023-04-27T17:52:10.449Z,12.97
2023-04-27T17:54:40.974Z,12.92
2023-04-27T17:57:09.040Z,12.79
2023-04-27T17:59:37.260Z,12.77
2023-04-27T18:02:04.969Z,12.68
2023-04-27T18:04:33.121Z,12.62
2023-04-27T18:07:00.798Z,12.63
2023-04-27T18:09:30.106Z,12.67
2023-04-27T18:12:00.723Z,12.65
2023-04-27T18:14:28.393Z,12.52
2023-04-27T18:16:56.091Z,12.52
2023-04-27T18:19:23.846Z,12.50
2023-04-27T18:21:51.722Z,12.50
2023-04-27T18:24:19.401Z,12.42
2023-04-27T18:26:47.222Z,12.33
2023-04-27T18:29:16.483Z,12.28
2023-04-27T18:31:44.268Z,12.37
2023-04-27T18:34:11.956Z,12.39
2023-04-27T18:36:39.644Z,12.36
2023-04-27T18:39:07.398Z,12.39
2023-04-27T18:41:35.005Z,12.48
2023-04-27T18:44:07.072Z,12.57
2023-04-27T18:46:36.218Z,12.53
2023-04-27T18:49:04.336Z,12.47
2023-04-27T18:51:32.429Z,12.42
2023-04-27T18:54:00.349Z,12.40
2023-04-27T18:56:28.107Z,12.35
2023-04-27T18:58:55.981Z,12.29
2023-04-27T19:01:25.041Z,12.28
2023-04-27T19:03:54.900Z,12.22
2023-04-27T19:06:22.766Z,12.22
2023-04-27T19:08:51.024Z,12.15
2023-04-27T19:11:22.069Z,12.12
2023-04-27T19:13:51.266Z,12.13
2023-04-27T19:16:19.250Z,12.08
2023-04-27T19:18:47.076Z,12.05
2023-04-27T19:21:16.317Z,12.06
2023-04-27T19:23:45.050Z,12.05
2023-04-27T19:26:13.891Z,12.01
2023-04-27T19:28:42.294Z,11.98
2023-04-27T19:31:10.335Z,11.97
2023-04-27T19:33:38.060Z,11.91
2023-04-27T19:36:06.222Z,11.92
2023-04-27T19:38:35.632Z,11.89
2023-04-27T19:41:04.225Z,11.89
2023-04-27T19:43:31.971Z,11.77
2023-04-27T19:46:00.460Z,11.78
2023-04-27T19:48:28.116Z,11.76
2023-04-27T19:50:55.839Z,11.77
2023-04-27T19:53:23.544Z,11.79
2023-04-27T19:55:53.016Z,11.76
2023-04-27T19:58:20.662Z,11.71
2023-04-27T20:00:48.245Z,11.67
2023-04-27T20:03:16.317Z,11.65
2023-04-27T20:05:44.694Z,11.57
2023-04-27T20:08:12.739Z,11.47
2023-04-27T20:10:40.990Z,11.49
2023-04-27T20:13:09.930Z,11.45
2023-04-27T20:15:37.600Z,11.45
2023-04-27T20:18:05.550Z,11.36
2023-04-27T20:20:33.366Z,11.36
2023-04-27T20:23:01.220Z,11.36
2023-04-27T20:25:31.345Z,11.30
2023-04-27T20:27:59.076Z,11.30
2023-04-27T20:30:28.593Z,11.30
2023-04-27T20:32:56.454Z,11.32
2023-04-27T20:35:24.233Z,11.33
2023-04-27T20:37:52.019Z,11.29
2023-04-27T20:40:20.273Z,11.20
2023-04-27T20:42:49.324Z,11.22
2023-04-27T20:45:17.787Z,11.23
2023-04-27T20:47:46.926Z,11.22
2023-04-27T20:50:14.582Z,11.19
2023-04-27T20:52:42.261Z,11.17
2023-04-27T20:55:10.144Z,11.10
2023-04-27T20:57:38.000Z,11.09
2023-04-27T21:00:10.112Z,11.04
2023-04-27T21:02:37.925Z,10.96
2023-04-27T21:05:07.212Z,10.91
2023-04-27T21:07:35.001Z,10.90
2023-04-27T21:10:06.239Z,10.83
2023-04-27T21:12:34.436Z,10.86
2023-04-27T21:15:03.872Z,10.92
2023-04-27T21:17:31.512Z,10.91
2023-04-27T21:20:00.305Z,10.89
2023-04-27T21:22:29.258Z,10.90
2023-04-27T21:24:56.892Z,10.90
2023-04-27T21:27:25.067Z,10.86
2023-04-27T21:29:53.199Z,10.87
2023-04-27T21:32:20.906Z,10.86
2023-04-27T21:34:48.651Z,10.88
2023-04-27T21:37:16.365Z,10.87
2023-04-27T21:39:45.365Z,10.81
2023-04-27T21:42:12.980Z,10.77
2023-04-27T21:44:40.636Z,10.66
2023-04-27T21:47:08.508Z,10.66
2023-04-27T21:49:36.133Z,10.62
2023-04-27T21:52:03.743Z,10.56
2023-04-27T21:54:31.539Z,10.60
2023-04-27T21:57:00.453Z,10.61
2023-04-27T21:59:28.086Z,10.61
2023-04-27T22:01:56.222Z,10.56
2023-04-27T22:04:25.112Z,10.57
2023-04-27T22:06:52.995Z,10.47
2023-04-27T22:09:20.691Z,10.38
2023-04-27T22:11:48.269Z,10.35
2023-04-27T22:14:17.299Z,10.36
2023-04-27T22:16:45.072Z,10.31
2023-04-27T22:19:13.116Z,10.27
2023-04-27T22:21:40.760Z,10.33
2023-04-27T22:24:08.898Z,10.33
2023-04-27T22:26:36.470Z,10.27
2023-04-27T22:29:04.021Z,10.23
2023-04-27T22:31:33.166Z,10.22
2023-04-27T22:34:00.952Z,10.25
2023-04-27T22:36:28.785Z,10.21
2023-04-27T22:38:57.180Z,10.16
2023-04-27T22:41:24.859Z,10.14
2023-04-27T22:43:52.507Z,10.09
2023-04-27T22:46:20.094Z,10.06
2023-04-27T22:48:50.272Z,10.09
2023-04-27T22:51:17.870Z,9.97
2023-04-27T22:53:45.716Z,10.02
2023-04-27T22:56:13.319Z,10.12
2023-04-27T22:58:40.979Z,10.02
2023-04-27T23:01:08.700Z,10.03
2023-04-27T23:03:36.411Z,10.05
2023-04-27T23:06:07.320Z,10.04
2023-04-27T23:08:34.882Z,10.05
2023-04-27T23:11:02.824Z,10.04
2023-04-27T23:13:31.427Z,10.00
2023-04-27T23:15:59.045Z,9.95
2023-04-27T23:18:26.880Z,9.89
2023-04-27T23:20:55.505Z,9.90
2023-04-27T23:23:24.598Z,9.92
2023-04-27T23:25:52.139Z,9.79
2023-04-27T23:28:20.690Z,9.72
2023-04-27T23:30:53.736Z,9.63
2023-04-27T23:33:21.660Z,9.62
2023-04-27T23:35:49.291Z,9.64
2023-04-27T23:38:16.956Z,9.57
2023-04-27T23:40:45.838Z,9.65
2023-04-27T23:43:13.424Z,9.59
2023-04-27T23:45:41.179Z,9.57
2023-04-27T23:48:08.837Z,9.48
2023-04-27T23:50:36.498Z,9.47
2023-04-27T23:53:04.075Z,9.34
2023-04-27T23:55:31.664Z,9.42
2023-04-27T23:58:00.803Z,9.35
